createdAt,value
2023-02-22T00:00:44.121Z,69.28
2023-02-22T00:01:51.957Z,69.37
2023-02-22T00:03:01.022Z,69.45
2023-02-22T00:04:07.779Z,69.65
2023-02-22T00:05:10.393Z,69.69
2023-02-22T00:06:17.785Z,69.62
2023-02-22T00:07:22.495Z,69.71
2023-02-22T00:08:33.737Z,69.67
2023-02-22T00:09:36.703Z,69.61
2023-02-22T00:10:39.592Z,69.47
2023-02-22T00:11:47.812Z,69.48
2023-02-22T00:12:55.321Z,69.32
2023-02-22T00:13:58.303Z,69.23
2023-02-22T00:15:00.965Z,69.19
2023-02-22T00:16:03.747Z,69.14
2023-02-22T00:17:06.589Z,69.23
2023-02-22T00:18:13.216Z,69.15
2023-02-22T00:19:15.862Z,69.18
2023-02-22T00:20:18.940Z,69.21
2023-02-22T00:21:22.351Z,69.05
2023-02-22T00:22:25.113Z,69.28
2023-02-22T00:23:31.466Z,69.38
2023-02-22T00:24:34.236Z,69.54
2023-02-22T00:25:37.420Z,69.56
2023-02-22T00:26:40.263Z,69.61
2023-02-22T00:27:42.913Z,70.27
2023-02-22T00:28:50.345Z,70.06
2023-02-22T00:29:53.083Z,69.88
2023-02-22T00:30:55.898Z,70.03
2023-02-22T00:31:58.602Z,69.96
2023-02-22T00:33:01.640Z,69.71
2023-02-22T00:34:04.266Z,69.75
2023-02-22T00:35:09.391Z,69.70
2023-02-22T00:36:13.666Z,69.74
2023-02-22T00:37:16.368Z,69.63
2023-02-22T00:38:20.758Z,69.39
2023-02-22T00:39:23.429Z,69.43
2023-02-22T00:40:31.581Z,69.31
2023-02-22T00:41:34.397Z,69.42
2023-02-22T00:42:37.096Z,69.38
2023-02-22T00:43:39.780Z,69.30
2023-02-22T00:44:42.536Z,69.23
2023-02-22T00:45:45.268Z,69.25
2023-02-22T00:46:48.017Z,69.61
2023-02-22T00:47:50.763Z,69.56
2023-02-22T00:48:53.514Z,69.70
2023-02-22T00:49:56.254Z,69.53
2023-02-22T00:50:58.914Z,69.45
2023-02-22T00:52:01.865Z,69.59
2023-02-22T00:53:06.379Z,69.55
2023-02-22T00:54:09.177Z,69.55
2023-02-22T00:55:18.325Z,69.66
2023-02-22T00:56:21.170Z,69.97
2023-02-22T00:57:24.047Z,70.22
2023-02-22T00:58:27.959Z,70.14
2023-02-22T00:59:32.263Z,70.10
2023-02-22T01:00:38.307Z,70.11
2023-02-22T01:01:41.097Z,70.18
2023-02-22T01:02:44.801Z,70.10
2023-02-22T01:03:47.493Z,69.99
2023-02-22T01:04:50.220Z,70.04
2023-02-22T01:05:52.910Z,70.33
2023-02-22T01:06:56.658Z,70.64
2023-02-22T01:08:01.223Z,70.66
2023-02-22T01:09:05.427Z,70.59
2023-02-22T01:10:09.826Z,70.59
2023-02-22T01:11:12.926Z,70.55
2023-02-22T01:12:16.285Z,70.61
2023-02-22T01:13:20.956Z,70.74
2023-02-22T01:14:27.807Z,70.87
2023-02-22T01:15:31.837Z,70.99
2023-02-22T01:16:34.489Z,70.99
2023-02-22T01:17:39.424Z,70.94
2023-02-22T01:18:42.115Z,71.02
2023-02-22T01:19:44.848Z,70.99
2023-02-22T01:20:49.017Z,70.95
2023-02-22T01:21:51.932Z,70.85
2023-02-22T01:22:57.251Z,70.74
2023-02-22T01:23:59.864Z,70.66
2023-02-22T01:25:02.505Z,70.51
2023-02-22T01:26:07.003Z,70.15
2023-02-22T01:27:09.759Z,69.91
2023-02-22T01:28:12.491Z,70.02
2023-02-22T01:29:16.487Z,70.13
2023-02-22T01:30:25.664Z,70.29
2023-02-22T01:31:28.638Z,70.33
2023-02-22T01:32:31.744Z,70.15
2023-02-22T01:33:35.035Z,69.98
2023-02-22T01:34:37.679Z,69.78
2023-02-22T01:35:44.142Z,69.69
2023-02-22T01:36:46.834Z,69.55
2023-02-22T01:37:49.656Z,69.41
2023-02-22T01:38:52.318Z,69.39
2023-02-22T01:39:54.966Z,69.45
2023-02-22T01:40:57.716Z,69.65
2023-02-22T01:42:00.507Z,69.47
2023-02-22T01:43:07.347Z,69.21
2023-02-22T01:44:31.597Z,69.27
2023-02-22T01:45:34.183Z,69.22
2023-02-22T01:46:36.846Z,69.38
2023-02-22T01:47:39.583Z,69.83
2023-02-22T01:48:46.470Z,69.93
2023-02-22T01:49:51.605Z,70.03
2023-02-22T01:51:12.007Z,70.03
2023-02-22T01:52:18.984Z,69.79
2023-02-22T01:53:26.192Z,70.07
2023-02-22T01:54:35.530Z,70.02
2023-02-22T01:55:40.087Z,69.88
2023-02-22T01:56:55.300Z,69.99
2023-02-22T01:57:58.275Z,70.08
2023-02-22T01:59:07.828Z,70.10
2023-02-22T02:00:15.859Z,70.43
2023-02-22T02:01:20.851Z,70.50
2023-02-22T02:02:26.271Z,70.36
2023-02-22T02:03:34.641Z,70.26
2023-02-22T02:04:37.994Z,69.99
2023-02-22T02:05:40.818Z,69.96
2023-02-22T02:06:44.144Z,70.31
2023-02-22T02:07:47.680Z,70.53
2023-02-22T02:09:02.326Z,70.45
2023-02-22T02:10:15.476Z,70.02
2023-02-22T02:11:22.808Z,69.98
2023-02-22T02:12:27.200Z,69.83
2023-02-22T02:13:29.905Z,69.40
2023-02-22T02:14:33.577Z,69.46
2023-02-22T02:15:36.323Z,69.33
2023-02-22T02:16:51.691Z,69.91
2023-02-22T02:17:57.706Z,69.96
2023-02-22T02:19:00.405Z,69.90
2023-02-22T02:20:26.255Z,69.99
2023-02-22T02:21:28.858Z,69.77
2023-02-22T02:22:35.968Z,69.84
2023-02-22T02:23:56.972Z,70.17
2023-02-22T02:25:11.973Z,70.19
2023-02-22T02:26:36.075Z,70.34
2023-02-22T02:28:20.119Z,70.89
2023-02-22T02:29:22.720Z,70.98
2023-02-22T02:30:46.391Z,70.86
2023-02-22T02:32:00.834Z,70.52
2023-02-22T02:33:35.663Z,70.18
2023-02-22T02:34:48.381Z,70.01
2023-02-22T02:35:59.990Z,70.22
2023-02-22T02:37:21.212Z,70.62
2023-02-22T02:38:54.490Z,70.62
2023-02-22T02:40:05.983Z,70.66
2023-02-22T02:41:16.394Z,70.88
2023-02-22T02:42:26.269Z,71.24
2023-02-22T02:43:34.923Z,71.38
2023-02-22T02:44:48.043Z,71.47
2023-02-22T02:46:11.280Z,71.77
2023-02-22T02:47:20.891Z,71.91
2023-02-22T02:48:28.205Z,72.01
2023-02-22T02:49:41.922Z,71.94
2023-02-22T02:50:48.269Z,71.92
2023-02-22T02:51:53.831Z,71.99
2023-02-22T02:53:01.782Z,71.98
2023-02-22T02:54:05.971Z,71.95
2023-02-22T02:55:12.477Z,71.95
2023-02-22T02:56:15.163Z,71.97
2023-02-22T02:57:18.044Z,71.89
2023-02-22T02:58:23.360Z,72.03
2023-02-22T02:59:30.392Z,72.44
2023-02-22T03:00:40.290Z,72.42
2023-02-22T03:02:08.547Z,72.18
2023-02-22T03:03:43.476Z,72.03
2023-02-22T03:05:13.931Z,71.57
2023-02-22T03:06:50.594Z,71.36
2023-02-22T03:08:19.381Z,70.92
2023-02-22T03:09:35.569Z,70.96
2023-02-22T03:10:53.047Z,71.03
2023-02-22T03:12:22.569Z,70.89
2023-02-22T03:13:41.564Z,71.18
2023-02-22T03:15:02.465Z,71.19
2023-02-22T03:16:20.325Z,71.10
2023-02-22T03:17:42.430Z,71.55
2023-02-22T03:18:50.759Z,71.44
2023-02-22T03:20:02.854Z,71.54
2023-02-22T03:21:14.445Z,71.33
2023-02-22T03:22:27.442Z,71.45
2023-02-22T03:23:37.768Z,71.39
2023-02-22T03:24:54.925Z,71.21
2023-02-22T03:26:06.951Z,71.10
2023-02-22T03:27:22.553Z,70.98
2023-02-22T03:28:29.613Z,71.02
2023-02-22T03:29:36.623Z,71.09
2023-02-22T03:30:47.706Z,71.27
2023-02-22T03:31:56.411Z,71.32
2023-02-22T03:33:10.044Z,71.26
2023-02-22T03:34:18.063Z,71.29
2023-02-22T03:35:26.116Z,71.28
2023-02-22T03:36:43.806Z,71.22
2023-02-22T03:37:50.039Z,71.32
2023-02-22T03:38:57.742Z,71.55
2023-02-22T03:40:02.015Z,71.42
2023-02-22T03:41:07.207Z,71.89
2023-02-22T03:42:16.085Z,71.83
2023-02-22T03:43:26.560Z,71.89
2023-02-22T03:44:33.091Z,71.82
2023-02-22T03:45:37.320Z,71.73
2023-02-22T03:46:42.059Z,71.65
2023-02-22T03:47:51.431Z,71.44
2023-02-22T03:49:03.184Z,71.44
2023-02-22T03:50:16.382Z,71.54
2023-02-22T03:51:19.897Z,71.55
2023-02-22T03:52:26.057Z,71.36
2023-02-22T03:53:28.817Z,71.26
2023-02-22T03:54:32.800Z,71.29
2023-02-22T03:55:36.096Z,71.18
2023-02-22T03:56:48.363Z,71.14
2023-02-22T03:57:58.682Z,71.37
2023-02-22T03:59:01.469Z,71.34
2023-02-22T04:00:08.312Z,71.39
2023-02-22T04:01:12.102Z,71.27
2023-02-22T04:02:14.737Z,71.02
2023-02-22T04:03:18.931Z,71.09
2023-02-22T04:04:22.400Z,71.02
2023-02-22T04:05:26.363Z,70.93
2023-02-22T04:06:30.136Z,70.73
2023-02-22T04:07:32.780Z,70.72
2023-02-22T04:08:35.601Z,70.76
2023-02-22T04:09:38.287Z,70.93
2023-02-22T04:10:40.970Z,71.14
2023-02-22T04:11:44.104Z,71.12
2023-02-22T04:12:46.966Z,71.02
2023-02-22T04:13:49.685Z,71.00
2023-02-22T04:14:52.482Z,71.05
2023-02-22T04:15:55.515Z,70.88
2023-02-22T04:16:58.269Z,70.57
2023-02-22T04:18:01.248Z,70.33
2023-02-22T04:19:03.926Z,70.25
2023-02-22T04:20:08.312Z,70.28
2023-02-22T04:21:10.930Z,70.23
2023-02-22T04:22:13.543Z,70.39
2023-02-22T04:23:17.996Z,70.47
2023-02-22T04:24:20.602Z,70.44
2023-02-22T04:25:24.595Z,70.32
2023-02-22T04:26:27.414Z,70.21
2023-02-22T04:27:30.123Z,70.09
2023-02-22T04:28:32.969Z,70.14
2023-02-22T04:29:35.714Z,70.18
2023-02-22T04:30:38.479Z,70.40
2023-02-22T04:31:41.187Z,70.47
2023-02-22T04:32:43.849Z,70.64
2023-02-22T04:33:46.497Z,70.65
2023-02-22T04:34:49.196Z,70.55
2023-02-22T04:35:52.772Z,70.52
2023-02-22T04:36:55.437Z,70.44
2023-02-22T04:37:59.265Z,70.42
2023-02-22T04:39:02.100Z,70.53
2023-02-22T04:40:09.585Z,70.42
2023-02-22T04:41:12.540Z,70.28
2023-02-22T04:42:15.250Z,70.36
2023-02-22T04:43:17.905Z,70.51
2023-02-22T04:44:20.581Z,71.01
2023-02-22T04:45:23.758Z,71.00
2023-02-22T04:46:26.527Z,71.20
2023-02-22T04:47:29.211Z,71.33
2023-02-22T04:48:32.027Z,71.26
2023-02-22T04:49:34.640Z,71.07
2023-02-22T04:50:37.304Z,70.90
2023-02-22T04:51:39.973Z,70.73
2023-02-22T04:52:42.655Z,70.80
2023-02-22T04:53:45.367Z,70.97
2023-02-22T04:54:48.115Z,70.86
2023-02-22T04:55:50.729Z,70.98
2023-02-22T04:56:53.376Z,70.93
2023-02-22T04:57:57.778Z,70.97
2023-02-22T04:59:00.439Z,70.93
2023-02-22T05:00:03.241Z,71.03
2023-02-22T05:01:06.116Z,71.05
2023-02-22T05:02:08.899Z,70.97
2023-02-22T05:03:11.553Z,70.93
2023-02-22T05:04:14.329Z,70.96
2023-02-22T05:05:19.827Z,71.09
2023-02-22T05:06:22.708Z,71.18
2023-02-22T05:07:25.395Z,71.32
2023-02-22T05:08:28.085Z,71.76
2023-02-22T05:09:30.725Z,71.80
2023-02-22T05:10:33.395Z,71.90
2023-02-22T05:11:36.013Z,71.83
2023-02-22T05:12:38.796Z,71.72
2023-02-22T05:13:41.511Z,71.65
2023-02-22T05:14:45.552Z,71.76
2023-02-22T05:15:49.017Z,71.86
2023-02-22T05:16:51.835Z,71.80
2023-02-22T05:17:54.845Z,71.95
2023-02-22T05:18:57.543Z,72.62
2023-02-22T05:20:00.606Z,72.57
2023-02-22T05:21:03.243Z,72.56
2023-02-22T05:22:06.814Z,72.78
2023-02-22T05:23:09.528Z,72.94
2023-02-22T05:24:12.176Z,72.98
2023-02-22T05:25:14.976Z,73.05
2023-02-22T05:26:17.665Z,73.08
2023-02-22T05:27:20.544Z,73.09
2023-02-22T05:28:23.245Z,73.03
2023-02-22T05:29:26.094Z,72.94
2023-02-22T05:30:31.983Z,72.86
2023-02-22T05:31:34.796Z,72.84
2023-02-22T05:32:37.567Z,72.81
2023-02-22T05:33:40.735Z,72.77
2023-02-22T05:34:43.345Z,73.09
2023-02-22T05:35:47.333Z,73.28
2023-02-22T05:36:49.982Z,73.22
2023-02-22T05:37:53.505Z,73.29
2023-02-22T05:38:57.046Z,73.41
2023-02-22T05:39:59.709Z,73.43
2023-02-22T05:41:02.458Z,73.36
2023-02-22T05:42:05.290Z,73.57
2023-02-22T05:43:08.958Z,73.60
2023-02-22T05:44:11.695Z,73.56
2023-02-22T05:45:15.391Z,73.47
2023-02-22T05:46:18.101Z,73.36
2023-02-22T05:47:20.960Z,73.23
2023-02-22T05:48:23.655Z,73.04
2023-02-22T05:49:26.274Z,72.97
2023-02-22T05:50:29.102Z,73.02
2023-02-22T05:51:32.579Z,73.24
2023-02-22T05:52:35.473Z,73.26
2023-02-22T05:53:38.731Z,73.35
2023-02-22T05:54:41.365Z,73.44
2023-02-22T05:55:46.467Z,73.47
2023-02-22T05:56:49.208Z,73.45
2023-02-22T05:57:53.232Z,73.50
2023-02-22T05:58:56.089Z,73.37
2023-02-22T05:59:58.745Z,73.41
2023-02-22T06:01:03.334Z,73.49
2023-02-22T06:02:06.227Z,73.52
2023-02-22T06:03:10.523Z,73.52
2023-02-22T06:04:13.225Z,73.58
2023-02-22T06:05:15.919Z,73.62
2023-02-22T06:06:22.374Z,73.67
2023-02-22T06:07:25.198Z,73.83
2023-02-22T06:08:28.076Z,73.97
2023-02-22T06:09:30.681Z,74.18
2023-02-22T06:10:33.670Z,74.14
2023-02-22T06:11:36.368Z,74.13
2023-02-22T06:12:38.990Z,74.17
2023-02-22T06:13:41.955Z,74.38
2023-02-22T06:14:47.154Z,74.54
2023-02-22T06:15:49.820Z,74.41
2023-02-22T06:16:56.596Z,74.25
2023-02-22T06:18:00.529Z,74.10
2023-02-22T06:19:03.330Z,74.02
2023-02-22T06:20:06.299Z,73.98
2023-02-22T06:21:10.935Z,73.93
2023-02-22T06:22:19.591Z,74.09
2023-02-22T06:23:22.304Z,74.13
2023-02-22T06:24:25.173Z,73.98
2023-02-22T06:25:32.431Z,73.81
2023-02-22T06:26:35.045Z,73.68
2023-02-22T06:27:38.486Z,73.58
2023-02-22T06:28:41.161Z,73.57
2023-02-22T06:29:47.967Z,73.50
2023-02-22T06:30:50.621Z,73.72
2023-02-22T06:31:53.662Z,73.92
2023-02-22T06:32:56.414Z,73.68
2023-02-22T06:33:59.073Z,73.55
2023-02-22T06:35:01.735Z,73.41
2023-02-22T06:36:04.750Z,73.16
2023-02-22T06:37:07.924Z,73.01
2023-02-22T06:38:10.554Z,73.25
2023-02-22T06:39:13.234Z,73.19
2023-02-22T06:40:16.085Z,73.13
2023-02-22T06:41:18.924Z,72.94
2023-02-22T06:42:21.697Z,73.15
2023-02-22T06:43:25.733Z,72.94
2023-02-22T06:44:28.374Z,72.67
2023-02-22T06:45:31.093Z,72.58
2023-02-22T06:46:33.966Z,72.46
2023-02-22T06:47:41.754Z,72.64
2023-02-22T06:48:44.389Z,72.89
2023-02-22T06:49:52.961Z,73.22
2023-02-22T06:50:55.656Z,72.90
2023-02-22T06:51:58.347Z,72.72
2023-02-22T06:53:01.429Z,72.90
2023-02-22T06:54:05.598Z,73.59
2023-02-22T06:55:08.420Z,73.33
2023-02-22T06:56:11.090Z,73.85
2023-02-22T06:57:13.760Z,74.21
2023-02-22T06:58:17.114Z,75.26
2023-02-22T06:59:19.970Z,75.35
2023-02-22T07:00:26.070Z,76.19
2023-02-22T07:01:29.561Z,76.62
2023-02-22T07:02:32.178Z,75.04
2023-02-22T07:03:36.758Z,73.97
2023-02-22T07:04:42.907Z,72.91
2023-02-22T07:05:46.174Z,73.60
2023-02-22T07:06:50.290Z,72.90
2023-02-22T07:07:55.114Z,72.63
2023-02-22T07:08:57.884Z,72.29
2023-02-22T07:10:00.560Z,72.28
2023-02-22T07:11:03.289Z,72.64
2023-02-22T07:12:06.122Z,72.80
2023-02-22T07:13:09.909Z,72.66
2023-02-22T07:14:12.708Z,73.17
2023-02-22T07:15:16.569Z,72.71
2023-02-22T07:16:19.337Z,72.84
2023-02-22T07:17:21.999Z,72.38
2023-02-22T07:18:25.256Z,72.33
2023-02-22T07:19:27.922Z,72.05
2023-02-22T07:20:32.502Z,74.40
2023-02-22T07:21:35.217Z,73.73
2023-02-22T07:22:38.212Z,73.24
2023-02-22T07:23:40.899Z,73.01
2023-02-22T07:24:43.651Z,72.60
2023-02-22T07:25:46.404Z,72.49
2023-02-22T07:26:49.087Z,72.41
2023-02-22T07:27:53.507Z,72.27
2023-02-22T07:28:56.150Z,72.23
2023-02-22T07:29:58.839Z,72.01
2023-02-22T07:31:02.532Z,72.71
2023-02-22T07:32:05.378Z,72.10
2023-02-22T07:33:10.600Z,71.62
2023-02-22T07:34:14.197Z,71.66
2023-02-22T07:35:39.660Z,71.67
2023-02-22T07:36:42.260Z,71.84
2023-02-22T07:37:45.468Z,72.00
2023-02-22T07:38:48.165Z,71.88
2023-02-22T07:39:50.804Z,71.76
2023-02-22T07:40:53.514Z,71.68
2023-02-22T07:41:56.203Z,71.42
2023-02-22T07:43:02.146Z,71.33
2023-02-22T07:44:05.033Z,71.28
2023-02-22T07:45:08.015Z,71.26
2023-02-22T07:46:10.691Z,71.36
2023-02-22T07:47:14.088Z,71.41
2023-02-22T07:48:18.780Z,71.41
2023-02-22T07:49:21.482Z,71.55
2023-02-22T07:50:26.085Z,71.42
2023-02-22T07:51:28.793Z,71.36
2023-02-22T07:52:31.488Z,71.42
2023-02-22T07:53:34.758Z,72.14
2023-02-22T07:54:37.796Z,71.49
2023-02-22T07:55:40.491Z,71.71
2023-02-22T07:56:47.654Z,71.11
2023-02-22T07:57:54.099Z,71.51
2023-02-22T07:58:56.900Z,71.51
2023-02-22T07:59:59.553Z,71.35
2023-02-22T08:01:05.317Z,71.02
2023-02-22T08:02:16.530Z,70.70
2023-02-22T08:03:21.154Z,71.49
2023-02-22T08:04:23.820Z,71.07
2023-02-22T08:05:28.984Z,70.82
2023-02-22T08:06:33.126Z,70.62
2023-02-22T08:07:35.762Z,70.33
2023-02-22T08:08:38.476Z,70.62
2023-02-22T08:09:41.168Z,70.49
2023-02-22T08:10:44.587Z,70.36
2023-02-22T08:11:47.230Z,70.32
2023-02-22T08:12:50.683Z,70.23
2023-02-22T08:13:53.560Z,69.96
2023-02-22T08:14:56.217Z,70.42
2023-02-22T08:15:58.894Z,69.79
2023-02-22T08:17:01.583Z,69.48
2023-02-22T08:18:10.330Z,68.71
2023-02-22T08:19:13.027Z,69.80
2023-02-22T08:20:15.774Z,70.24
2023-02-22T08:21:19.125Z,70.11
2023-02-22T08:22:22.148Z,69.23
2023-02-22T08:23:27.969Z,70.87
2023-02-22T08:24:30.641Z,69.95
2023-02-22T08:25:33.403Z,69.86
2023-02-22T08:26:36.074Z,68.99
2023-02-22T08:27:38.787Z,68.65
2023-02-22T08:28:41.663Z,68.64
2023-02-22T08:29:44.322Z,69.47
2023-02-22T08:30:47.286Z,68.89
2023-02-22T08:31:55.191Z,68.94
2023-02-22T08:32:59.210Z,68.36
2023-02-22T08:34:02.180Z,69.29
2023-02-22T08:35:05.065Z,69.05
2023-02-22T08:36:08.050Z,68.61
2023-02-22T08:37:10.718Z,67.47
2023-02-22T08:38:19.294Z,67.61
2023-02-22T08:39:22.830Z,67.53
2023-02-22T08:40:28.753Z,67.45
2023-02-22T08:41:31.545Z,67.39
2023-02-22T08:42:34.223Z,68.00
2023-02-22T08:43:36.980Z,68.18
2023-02-22T08:44:41.135Z,67.52
2023-02-22T08:45:45.456Z,67.47
2023-02-22T08:46:48.285Z,66.79
2023-02-22T08:47:51.449Z,67.91
2023-02-22T08:48:54.551Z,67.36
2023-02-22T08:49:57.342Z,66.79
2023-02-22T08:51:00.433Z,66.76
2023-02-22T08:52:03.167Z,66.99
2023-02-22T08:53:06.911Z,68.73
2023-02-22T08:54:09.712Z,68.69
2023-02-22T08:55:12.585Z,67.93
2023-02-22T08:56:15.264Z,65.79
2023-02-22T08:57:18.709Z,65.83
2023-02-22T08:58:23.378Z,65.97
2023-02-22T08:59:26.278Z,66.51
2023-02-22T09:00:30.696Z,67.05
2023-02-22T09:01:35.602Z,68.02
2023-02-22T09:02:38.496Z,66.66
2023-02-22T09:03:41.147Z,65.24
2023-02-22T09:04:44.214Z,64.88
2023-02-22T09:05:47.030Z,65.20
2023-02-22T09:06:52.777Z,65.18
2023-02-22T09:07:55.632Z,65.01
2023-02-22T09:08:58.277Z,64.88
2023-02-22T09:10:00.936Z,64.90
2023-02-22T09:11:03.612Z,64.77
2023-02-22T09:12:06.745Z,64.71
2023-02-22T09:13:09.752Z,64.68
2023-02-22T09:14:12.410Z,64.67
2023-02-22T09:15:16.449Z,64.58
2023-02-22T09:16:19.466Z,64.54
2023-02-22T09:17:22.134Z,64.07
2023-02-22T09:18:28.594Z,64.05
2023-02-22T09:19:33.413Z,64.29
2023-02-22T09:20:37.045Z,64.37
2023-02-22T09:21:41.314Z,64.38
2023-02-22T09:22:46.784Z,64.36
2023-02-22T09:23:49.548Z,64.41
2023-02-22T09:24:53.618Z,64.00
2023-02-22T09:25:56.503Z,64.10
2023-02-22T09:27:00.889Z,64.17
2023-02-22T09:28:03.767Z,64.23
2023-02-22T09:29:13.316Z,63.93
2023-02-22T09:30:24.820Z,63.60
2023-02-22T09:31:27.668Z,63.65
2023-02-22T09:32:30.566Z,63.77
2023-02-22T09:33:33.365Z,63.81
2023-02-22T09:34:36.443Z,63.42
2023-02-22T09:35:43.259Z,63.47
2023-02-22T09:36:47.712Z,63.56
2023-02-22T09:37:50.376Z,63.64
2023-02-22T09:38:53.449Z,63.63
2023-02-22T09:39:56.167Z,63.78
2023-02-22T09:41:13.492Z,63.85
2023-02-22T09:42:35.356Z,63.33
2023-02-22T09:44:08.070Z,63.63
2023-02-22T09:45:21.933Z,63.73
2023-02-22T09:46:38.963Z,63.77
2023-02-22T09:47:47.676Z,63.74
2023-02-22T09:49:01.956Z,63.85
2023-02-22T09:50:16.636Z,64.21
2023-02-22T09:51:21.731Z,64.15
2023-02-22T09:52:37.547Z,63.85
2023-02-22T09:53:45.202Z,63.44
2023-02-22T09:55:05.787Z,63.58
2023-02-22T09:56:15.027Z,63.47
2023-02-22T09:57:23.920Z,63.54
2023-02-22T09:58:36.671Z,63.39
2023-02-22T09:59:47.219Z,63.05
2023-02-22T10:00:54.965Z,63.16
2023-02-22T10:02:23.192Z,63.14
2023-02-22T10:03:34.027Z,63.16
2023-02-22T10:04:46.072Z,63.02
2023-02-22T10:06:07.084Z,62.97
2023-02-22T10:07:27.022Z,63.00
2023-02-22T10:08:34.369Z,63.54
2023-02-22T10:09:43.703Z,63.48
2023-02-22T10:10:49.894Z,63.81
2023-02-22T10:11:58.522Z,63.36
2023-02-22T10:13:25.375Z,63.46
2023-02-22T10:14:46.798Z,63.22
2023-02-22T10:16:27.074Z,63.23
2023-02-22T10:18:04.542Z,63.04
2023-02-22T10:19:42.144Z,63.22
2023-02-22T10:20:58.903Z,63.26
2023-02-22T10:22:40.946Z,63.39
2023-02-22T10:24:05.545Z,63.64
2023-02-22T10:25:15.313Z,63.91
2023-02-22T10:26:25.072Z,63.82
2023-02-22T10:27:43.448Z,63.49
2023-02-22T10:28:56.341Z,63.53
2023-02-22T10:30:23.461Z,63.54
2023-02-22T10:31:31.914Z,63.63
2023-02-22T10:32:46.980Z,63.79
2023-02-22T10:33:56.764Z,63.81
2023-02-22T10:35:01.431Z,64.05
2023-02-22T10:36:04.536Z,63.81
2023-02-22T10:37:30.914Z,63.82
2023-02-22T10:38:35.762Z,63.98
2023-02-22T10:39:40.887Z,63.76
2023-02-22T10:41:05.447Z,63.94
2023-02-22T10:42:10.382Z,64.04
2023-02-22T10:43:14.993Z,64.28
2023-02-22T10:44:18.093Z,64.05
2023-02-22T10:45:30.905Z,64.42
2023-02-22T10:46:35.433Z,64.20
2023-02-22T10:47:38.778Z,64.15
2023-02-22T10:48:44.605Z,63.71
2023-02-22T10:49:56.696Z,63.74
2023-02-22T10:51:04.753Z,63.66
2023-02-22T10:52:34.938Z,63.51
2023-02-22T10:53:39.576Z,63.33
2023-02-22T10:54:46.751Z,63.21
2023-02-22T10:56:17.856Z,63.26
2023-02-22T10:57:24.638Z,63.31
2023-02-22T10:58:27.325Z,63.18
2023-02-22T10:59:34.306Z,62.91
2023-02-22T11:00:41.252Z,62.75
2023-02-22T11:01:44.056Z,62.98
2023-02-22T11:03:17.847Z,62.82
2023-02-22T11:04:25.324Z,62.75
2023-02-22T11:05:27.934Z,62.55
2023-02-22T11:06:32.269Z,62.57
2023-02-22T11:07:37.793Z,62.57
2023-02-22T11:08:42.628Z,62.60
2023-02-22T11:09:51.356Z,62.39
2023-02-22T11:10:57.002Z,62.46
2023-02-22T11:12:18.561Z,62.31
2023-02-22T11:13:38.479Z,62.29
2023-02-22T11:14:41.236Z,62.12
2023-02-22T11:15:45.226Z,62.06
2023-02-22T11:16:52.623Z,61.78
2023-02-22T11:17:58.614Z,61.97
2023-02-22T11:19:24.135Z,61.80
2023-02-22T11:20:30.939Z,61.35
2023-02-22T11:21:33.847Z,61.85
2023-02-22T11:22:43.158Z,61.85
2023-02-22T11:23:45.899Z,61.57
2023-02-22T11:24:52.937Z,61.12
2023-02-22T11:26:11.751Z,60.97
2023-02-22T11:27:39.179Z,60.99
2023-02-22T11:28:50.549Z,60.83
2023-02-22T11:29:53.769Z,60.82
2023-02-22T11:30:56.816Z,60.80
2023-02-22T11:32:23.597Z,60.66
2023-02-22T11:33:30.344Z,60.66
2023-02-22T11:34:37.603Z,60.82
2023-02-22T11:35:51.228Z,60.36
2023-02-22T11:36:54.096Z,60.31
2023-02-22T11:38:12.978Z,59.97
2023-02-22T11:39:31.473Z,60.16
2023-02-22T11:40:36.417Z,60.18
2023-02-22T11:41:39.107Z,60.16
2023-02-22T11:42:42.070Z,60.02
2023-02-22T11:43:49.572Z,59.79
2023-02-22T11:45:10.773Z,59.66
2023-02-22T11:46:32.479Z,59.51
2023-02-22T11:47:36.596Z,59.29
2023-02-22T11:48:45.437Z,59.41
2023-02-22T11:49:48.546Z,59.01
2023-02-22T11:51:05.025Z,59.51
2023-02-22T11:52:39.642Z,59.58
2023-02-22T11:54:09.205Z,59.15
2023-02-22T11:55:36.296Z,58.73
2023-02-22T11:56:48.068Z,58.04
2023-02-22T11:58:21.140Z,58.54
2023-02-22T11:59:44.226Z,58.51
2023-02-22T12:01:25.444Z,58.16
2023-02-22T12:03:10.076Z,57.92
2023-02-22T12:04:50.833Z,57.72
2023-02-22T12:06:17.012Z,57.55
2023-02-22T12:07:28.725Z,57.51
2023-02-22T12:08:39.711Z,57.96
2023-02-22T12:09:42.292Z,58.45
2023-02-22T12:10:48.147Z,58.67
2023-02-22T12:12:21.322Z,58.50
2023-02-22T12:13:42.743Z,57.99
2023-02-22T12:14:56.912Z,58.01
2023-02-22T12:16:29.146Z,58.48
2023-02-22T12:17:48.185Z,57.84
2023-02-22T12:19:25.509Z,57.21
2023-02-22T12:20:48.934Z,56.98
2023-02-22T12:21:58.992Z,57.11
2023-02-22T12:23:16.561Z,56.91
2023-02-22T12:24:28.780Z,56.69
2023-02-22T12:25:40.573Z,56.48
2023-02-22T12:27:10.801Z,55.90
2023-02-22T12:28:40.723Z,56.18
2023-02-22T12:29:52.166Z,56.48
2023-02-22T12:31:16.067Z,56.77
2023-02-22T12:32:27.223Z,56.69
2023-02-22T12:33:39.363Z,56.47
2023-02-22T12:34:53.487Z,56.47
2023-02-22T12:36:00.003Z,56.29
2023-02-22T12:37:08.834Z,56.14
2023-02-22T12:38:27.043Z,56.18
2023-02-22T12:40:01.683Z,55.93
2023-02-22T12:41:07.185Z,55.99
2023-02-22T12:42:25.893Z,56.11
2023-02-22T12:43:34.148Z,55.56
2023-02-22T12:44:42.503Z,55.31
2023-02-22T12:45:55.330Z,54.85
2023-02-22T12:47:01.107Z,55.24
2023-02-22T12:48:53.216Z,55.08
2023-02-22T12:50:20.752Z,55.01
2023-02-22T12:51:45.510Z,54.82
2023-02-22T12:53:04.087Z,55.90
2023-02-22T12:54:29.283Z,55.92
2023-02-22T12:55:56.264Z,55.55
2023-02-22T12:57:29.405Z,55.72
2023-02-22T12:58:44.340Z,55.59
2023-02-22T12:59:52.174Z,55.69
2023-02-22T13:01:13.237Z,55.70
2023-02-22T13:02:26.319Z,55.89
2023-02-22T13:03:35.202Z,55.86
2023-02-22T13:04:38.086Z,55.70
2023-02-22T13:05:41.784Z,55.45
2023-02-22T13:06:58.444Z,55.47
2023-02-22T13:08:33.392Z,55.44
2023-02-22T13:09:51.113Z,54.92
2023-02-22T13:11:11.541Z,54.88
2023-02-22T13:12:33.732Z,54.96
2023-02-22T13:13:44.801Z,55.10
2023-02-22T13:15:11.809Z,55.25
2023-02-22T13:16:29.462Z,55.25
2023-02-22T13:18:01.648Z,55.33
2023-02-22T13:19:22.329Z,55.47
2023-02-22T13:20:28.861Z,55.51
2023-02-22T13:21:58.040Z,55.62
2023-02-22T13:23:08.555Z,55.63
2023-02-22T13:24:22.751Z,55.31
2023-02-22T13:25:37.959Z,54.83
2023-02-22T13:26:51.711Z,54.45
2023-02-22T13:28:14.218Z,53.96
2023-02-22T13:29:32.960Z,54.01
2023-02-22T13:31:07.991Z,54.16
2023-02-22T13:32:52.470Z,54.62
2023-02-22T13:34:19.932Z,54.87
2023-02-22T13:35:42.631Z,54.83
2023-02-22T13:37:09.863Z,55.00
2023-02-22T13:38:30.890Z,54.90
2023-02-22T13:40:04.389Z,54.98
2023-02-22T13:41:21.628Z,55.14
2023-02-22T13:43:00.797Z,55.05
2023-02-22T13:44:18.108Z,54.99
2023-02-22T13:45:39.257Z,55.10
2023-02-22T13:47:12.813Z,54.97
2023-02-22T13:48:40.211Z,55.07
2023-02-22T13:49:46.155Z,55.20
2023-02-22T13:51:30.841Z,55.40
2023-02-22T13:52:38.509Z,55.36
2023-02-22T13:53:48.965Z,55.29
2023-02-22T13:54:56.379Z,55.46
2023-02-22T13:56:01.738Z,55.56
2023-02-22T13:57:06.226Z,55.72
2023-02-22T13:58:11.482Z,55.89
2023-02-22T13:59:28.817Z,55.48
2023-02-22T14:00:45.492Z,55.30
2023-02-22T14:01:49.917Z,55.21
2023-02-22T14:03:02.468Z,55.13
2023-02-22T14:04:28.642Z,54.98
2023-02-22T14:05:43.444Z,54.96
2023-02-22T14:06:46.903Z,55.16
2023-02-22T14:07:50.472Z,55.16
2023-02-22T14:08:53.133Z,55.02
2023-02-22T14:09:58.319Z,54.78
2023-02-22T14:11:16.026Z,54.91
2023-02-22T14:12:51.241Z,55.04
2023-02-22T14:13:58.114Z,53.99
2023-02-22T14:15:28.587Z,54.21
2023-02-22T14:16:33.025Z,54.93
2023-02-22T14:17:38.666Z,55.28
2023-02-22T14:18:47.592Z,55.39
2023-02-22T14:20:20.706Z,55.34
2023-02-22T14:21:23.858Z,55.32
2023-02-22T14:22:30.907Z,54.81
2023-02-22T14:23:42.015Z,54.73
2023-02-22T14:24:47.975Z,54.89
2023-02-22T14:25:51.743Z,55.05
2023-02-22T14:27:02.556Z,55.11
2023-02-22T14:28:08.557Z,55.28
2023-02-22T14:29:11.147Z,55.24
2023-02-22T14:30:27.155Z,55.46
2023-02-22T14:31:37.084Z,55.47
2023-02-22T14:32:41.541Z,55.44
2023-02-22T14:34:07.607Z,55.58
2023-02-22T14:35:27.535Z,55.60
2023-02-22T14:36:47.847Z,55.69
2023-02-22T14:37:55.769Z,55.65
2023-02-22T14:39:08.085Z,55.49
2023-02-22T14:40:22.765Z,55.47
2023-02-22T14:41:31.062Z,55.39
2023-02-22T14:42:43.007Z,55.37